createdAt,value
2018-02-20T00:00:14.761Z,31.52
2018-02-20T00:02:42.278Z,29.83
2018-02-20T00:05:09.791Z,32.22
2018-02-20T00:07:37.262Z,33.60
2018-02-20T00:10:05.490Z,34.85
2018-02-20T00:12:33.002Z,34.90
2018-02-20T00:15:00.490Z,34.53
2018-02-20T00:17:28.012Z,34.28
2018-02-20T00:19:55.476Z,31.58
2018-02-20T00:22:22.981Z,33.42
2018-02-20T00:24:50.440Z,30.60
2018-02-20T00:27:17.958Z,28.80
2018-02-20T00:29:45.422Z,31.77
2018-02-20T00:32:13.664Z,31.10
2018-02-20T00:34:41.191Z,31.42
2018-02-20T00:37:08.682Z,30.30
2018-02-20T00:39:36.183Z,30.52
2018-02-20T00:42:04.419Z,30.80
2018-02-20T00:44:31.930Z,32.80
2018-02-20T00:46:59.390Z,32.03
2018-02-20T00:49:26.892Z,29.23
2018-02-20T00:51:54.353Z,30.55
2018-02-20T00:54:21.870Z,32.22
2018-02-20T00:56:49.350Z,32.50
2018-02-20T00:59:16.811Z,31.62
2018-02-20T01:01:44.300Z,30.52
2018-02-20T01:04:12.397Z,32.33
2018-02-20T01:06:40.651Z,32.33
2018-02-20T01:09:08.120Z,31.20
2018-02-20T01:11:36.387Z,32.88
2018-02-20T01:14:03.855Z,30.75
2018-02-20T01:16:32.139Z,31.92
2018-02-20T01:19:00.371Z,33.08
2018-02-20T01:21:27.905Z,31.85
2018-02-20T01:23:55.399Z,32.33
2018-02-20T01:26:22.890Z,32.00
2018-02-20T01:28:51.151Z,33.72
2018-02-20T01:31:18.610Z,34.58
2018-02-20T01:33:46.117Z,31.48
2018-02-20T01:36:13.582Z,35.08
2018-02-20T01:38:41.207Z,34.38
2018-02-20T01:41:09.446Z,31.08
2018-02-20T01:43:36.969Z,30.95
2018-02-20T01:46:04.451Z,33.33
2018-02-20T01:48:31.950Z,36.15
2018-02-20T01:51:08.442Z,34.45
2018-02-20T01:53:35.915Z,33.67
2018-02-20T01:56:03.432Z,34.70
2018-02-20T01:58:30.903Z,35.25
2018-02-20T02:00:59.157Z,34.85
2018-02-20T02:03:26.660Z,36.42
2018-02-20T02:05:54.148Z,33.95
2018-02-20T02:08:21.654Z,36.33
2018-02-20T02:10:49.887Z,32.80
2018-02-20T02:13:17.394Z,32.85
2018-02-20T02:15:45.630Z,29.85
2018-02-20T02:18:13.130Z,30.65
2018-02-20T02:20:41.378Z,34.05
2018-02-20T02:23:08.847Z,33.67
2018-02-20T02:25:36.355Z,33.78
2018-02-20T02:28:03.829Z,38.20
2018-02-20T02:30:31.333Z,31.62
2018-02-20T02:32:59.588Z,32.63
2018-02-20T02:35:27.074Z,34.05
2018-02-20T02:37:55.323Z,32.50
2018-02-20T02:40:22.835Z,32.40
2018-02-20T02:42:50.334Z,33.90
2018-02-20T02:45:17.844Z,34.17
2018-02-20T02:47:45.339Z,30.70
2018-02-20T02:50:12.826Z,29.48
2018-02-20T02:52:40.351Z,33.42
2018-02-20T02:55:07.845Z,33.90
2018-02-20T02:57:35.348Z,31.30
2018-02-20T03:00:02.816Z,32.25
2018-02-20T03:02:30.342Z,31.02
2018-02-20T03:04:58.567Z,30.02
2018-02-20T03:07:26.034Z,27.92
2018-02-20T03:09:53.538Z,30.50
2018-02-20T03:12:21.802Z,31.73
2018-02-20T03:14:50.066Z,29.75
2018-02-20T03:17:17.525Z,31.50
2018-02-20T03:19:45.038Z,31.58
2018-02-20T03:22:12.503Z,30.40
2018-02-20T03:24:40.008Z,29.17
2018-02-20T03:27:07.491Z,31.17
2018-02-20T03:29:35.714Z,32.72
2018-02-20T03:32:03.242Z,32.08
2018-02-20T03:34:30.730Z,30.40
2018-02-20T03:36:58.239Z,33.15
2018-02-20T03:39:26.471Z,31.45
2018-02-20T03:41:53.982Z,33.63
2018-02-20T03:44:21.455Z,32.45
2018-02-20T03:46:48.971Z,33.28
2018-02-20T03:49:16.444Z,34.20
2018-02-20T03:51:44.674Z,33.38
2018-02-20T03:54:12.168Z,32.75
2018-02-20T03:56:39.658Z,33.17
2018-02-20T03:59:07.159Z,31.85
2018-02-20T04:01:34.622Z,33.65
2018-02-20T04:04:02.121Z,33.70
2018-02-20T04:06:30.367Z,33.95
2018-02-20T04:08:57.886Z,32.22
2018-02-20T04:11:25.382Z,34.45
2018-02-20T04:13:52.859Z,32.42
2018-02-20T04:16:20.355Z,32.35
2018-02-20T04:18:47.830Z,32.47
2018-02-20T04:21:15.323Z,31.08
2018-02-20T04:23:42.800Z,33.50
2018-02-20T04:26:11.082Z,31.27
2018-02-20T04:28:39.351Z,32.53
2018-02-20T04:31:07.611Z,31.65
2018-02-20T04:33:35.085Z,30.85
2018-02-20T04:36:03.358Z,31.55
2018-02-20T04:38:30.881Z,31.75
2018-02-20T04:40:58.779Z,31.50
2018-02-20T04:43:26.299Z,31.20
2018-02-20T04:45:53.787Z,31.45
2018-02-20T04:48:21.293Z,34.35
2018-02-20T04:50:48.747Z,31.83
2018-02-20T04:53:16.243Z,30.70
2018-02-20T04:55:43.735Z,32.42
2018-02-20T04:58:11.251Z,31.20
2018-02-20T05:00:38.741Z,31.80
2018-02-20T05:03:06.214Z,31.37
2018-02-20T05:05:34.480Z,32.10
2018-02-20T05:08:01.956Z,29.65
2018-02-20T05:10:30.220Z,30.83
2018-02-20T05:12:57.702Z,29.23
2018-02-20T05:15:25.962Z,29.63
2018-02-20T05:17:54.216Z,29.73
2018-02-20T05:20:23.239Z,28.30
2018-02-20T05:22:51.498Z,29.40
2018-02-20T05:25:18.964Z,27.60
2018-02-20T05:27:46.484Z,28.25
2018-02-20T05:30:13.971Z,29.60
2018-02-20T05:32:41.477Z,26.20
2018-02-20T05:35:08.953Z,25.75
2018-02-20T05:37:36.467Z,31.75
2018-02-20T05:40:04.711Z,27.55
2018-02-20T05:42:32.231Z,25.35
2018-02-20T05:44:59.710Z,28.33
2018-02-20T05:47:27.182Z,28.98
2018-02-20T05:49:54.678Z,28.25
2018-02-20T05:52:22.916Z,27.20
2018-02-20T05:54:50.431Z,28.10
2018-02-20T05:57:18.658Z,26.70
2018-02-20T05:59:46.164Z,28.17
2018-02-20T06:02:13.641Z,29.35
2018-02-20T06:04:41.141Z,27.35
2018-02-20T06:07:08.618Z,28.65
2018-02-20T06:09:37.133Z,27.10
2018-02-20T06:12:05.371Z,24.60
2018-02-20T06:14:32.866Z,24.25
2018-02-20T06:17:00.383Z,24.52
2018-02-20T06:19:28.016Z,24.95
2018-02-20T06:21:55.540Z,23.60
2018-02-20T06:24:23.020Z,26.37
2018-02-20T06:26:50.535Z,26.12
2018-02-20T06:29:18.018Z,28.17
2018-02-20T06:31:45.535Z,27.40
2018-02-20T06:34:13.012Z,28.35
2018-02-20T06:36:40.522Z,28.95
2018-02-20T06:39:08.016Z,27.80
2018-02-20T06:41:35.495Z,27.70
2018-02-20T06:44:03.031Z,27.92
2018-02-20T06:46:30.503Z,25.70
2018-02-20T06:48:58.024Z,27.45
2018-02-20T06:51:25.508Z,27.40
2018-02-20T06:53:53.015Z,28.15
2018-02-20T06:56:20.489Z,33.17
2018-02-20T06:58:47.995Z,28.77
2018-02-20T07:01:15.531Z,22.23
2018-02-20T07:03:43.020Z,23.10
2018-02-20T07:06:11.319Z,35.10
2018-02-20T07:08:38.802Z,62.08
2018-02-20T07:11:06.340Z,52.90
2018-02-20T07:13:33.832Z,41.40
2018-02-20T07:16:01.381Z,36.22
2018-02-20T07:18:28.859Z,39.60
2018-02-20T07:20:56.339Z,29.50
2018-02-20T07:23:23.854Z,29.83
2018-02-20T07:25:51.332Z,22.48
2018-02-20T07:28:18.956Z,25.10
2018-02-20T07:30:46.439Z,25.95
2018-02-20T07:33:13.951Z,24.10
2018-02-20T07:35:42.200Z,24.00
2018-02-20T07:38:09.731Z,19.02
2018-02-20T07:40:37.259Z,23.52
2018-02-20T07:43:05.510Z,33.78
2018-02-20T07:45:33.003Z,30.92
2018-02-20T07:48:00.502Z,23.85
2018-02-20T07:50:28.024Z,22.90
2018-02-20T07:52:55.502Z,20.17
2018-02-20T07:55:23.006Z,24.73
2018-02-20T07:57:50.511Z,19.92
2018-02-20T08:00:17.999Z,19.85
2018-02-20T08:02:47.147Z,20.02
2018-02-20T08:05:14.637Z,19.33
2018-02-20T08:07:42.165Z,17.20
2018-02-20T08:10:10.411Z,17.80
2018-02-20T08:12:37.931Z,18.92
2018-02-20T08:15:05.430Z,21.40
2018-02-20T08:17:32.911Z,20.50
2018-02-20T08:20:01.169Z,19.23
2018-02-20T08:22:29.444Z,19.60
2018-02-20T08:24:56.944Z,19.90
2018-02-20T08:27:24.410Z,18.37
2018-02-20T08:29:51.926Z,21.00
2018-02-20T08:32:19.395Z,19.70
2018-02-20T08:34:47.664Z,18.10
2018-02-20T08:37:15.139Z,19.58
2018-02-20T08:39:42.664Z,19.70
2018-02-20T08:42:10.123Z,17.02
2018-02-20T08:44:37.600Z,17.02
2018-02-20T08:47:05.881Z,17.05
2018-02-20T08:49:34.118Z,17.23
2018-02-20T08:52:01.612Z,17.25
2018-02-20T08:54:29.126Z,18.17
2018-02-20T08:56:57.584Z,17.50
2018-02-20T08:59:25.076Z,16.00
2018-02-20T09:01:52.578Z,19.45
2018-02-20T09:04:20.822Z,18.60
2018-02-20T09:06:48.322Z,19.70
2018-02-20T09:09:16.576Z,19.10
2018-02-20T09:11:44.048Z,17.37
2018-02-20T09:14:12.318Z,15.85
2018-02-20T09:16:39.822Z,18.62
2018-02-20T09:19:07.350Z,18.35
2018-02-20T09:21:35.587Z,15.38
2018-02-20T09:24:03.111Z,17.87
2018-02-20T09:26:30.583Z,17.08
2018-02-20T09:28:58.103Z,16.45
2018-02-20T09:31:26.360Z,16.35
2018-02-20T09:33:53.865Z,16.52
2018-02-20T09:36:21.340Z,15.80
2018-02-20T09:38:48.845Z,18.10
2018-02-20T09:41:17.082Z,16.48
2018-02-20T09:43:44.578Z,17.73
2018-02-20T09:46:12.851Z,16.17
2018-02-20T09:48:40.332Z,16.12
2018-02-20T09:51:07.823Z,16.33
2018-02-20T09:53:35.299Z,19.08
2018-02-20T09:56:02.766Z,15.75
2018-02-20T09:58:30.298Z,14.05
2018-02-20T10:00:57.792Z,16.52
2018-02-20T10:03:25.274Z,14.68
2018-02-20T10:05:53.562Z,15.40
2018-02-20T10:08:21.841Z,15.13
2018-02-20T10:10:49.351Z,15.48
2018-02-20T10:13:16.871Z,15.32
2018-02-20T10:15:44.350Z,14.63
2018-02-20T10:18:11.847Z,15.38
2018-02-20T10:20:39.358Z,15.07
2018-02-20T10:23:06.827Z,16.87
2018-02-20T10:25:34.339Z,18.20
2018-02-20T10:28:02.572Z,17.17
2018-02-20T10:30:30.083Z,18.50
2018-02-20T10:32:58.307Z,16.30
2018-02-20T10:35:25.801Z,20.62
2018-02-20T10:37:54.031Z,17.27
2018-02-20T10:40:21.531Z,16.30
2018-02-20T10:42:49.056Z,20.05
2018-02-20T10:45:16.554Z,17.80
2018-02-20T10:47:44.814Z,16.90
2018-02-20T10:50:12.298Z,19.70
2018-02-20T10:52:40.557Z,16.40
2018-02-20T10:55:08.056Z,15.45
2018-02-20T10:57:35.545Z,14.70
2018-02-20T11:00:03.041Z,17.95
2018-02-20T11:02:31.313Z,18.40
2018-02-20T11:04:59.584Z,16.30
2018-02-20T11:07:27.090Z,18.77
2018-02-20T11:09:54.600Z,18.95
2018-02-20T11:12:22.071Z,18.25
2018-02-20T11:14:50.343Z,18.73
2018-02-20T11:17:17.807Z,16.00
2018-02-20T11:19:46.086Z,17.40
2018-02-20T11:22:14.360Z,16.95
2018-02-20T11:24:42.610Z,16.15
2018-02-20T11:27:10.112Z,16.27
2018-02-20T11:29:37.631Z,17.42
2018-02-20T11:32:05.123Z,18.52
2018-02-20T11:34:33.408Z,18.48
2018-02-20T11:37:01.655Z,18.35
2018-02-20T11:39:29.152Z,20.92
2018-02-20T11:41:56.631Z,16.98
2018-02-20T11:44:24.122Z,18.55
2018-02-20T11:46:51.589Z,16.90
2018-02-20T11:49:19.080Z,17.92
2018-02-20T11:51:47.164Z,15.77
2018-02-20T11:54:15.418Z,20.00
2018-02-20T11:56:43.692Z,18.73
2018-02-20T11:59:11.921Z,16.87
2018-02-20T12:01:39.432Z,15.98
2018-02-20T12:04:07.670Z,18.20
2018-02-20T12:06:35.188Z,16.92
2018-02-20T12:09:02.721Z,18.80
2018-02-20T12:11:30.983Z,17.15
2018-02-20T12:13:58.544Z,15.30
2018-02-20T12:16:26.028Z,16.50
2018-02-20T12:18:54.274Z,15.95
2018-02-20T12:21:21.803Z,15.02
2018-02-20T12:23:49.330Z,15.40
2018-02-20T12:26:16.858Z,16.05
2018-02-20T12:28:44.341Z,14.95
2018-02-20T12:31:12.591Z,13.85
2018-02-20T12:33:40.114Z,14.02
2018-02-20T12:36:07.628Z,15.95
2018-02-20T12:38:35.873Z,15.00
2018-02-20T12:41:03.376Z,15.02
2018-02-20T12:43:31.645Z,17.00
2018-02-20T12:45:59.126Z,19.37
2018-02-20T12:48:26.619Z,16.42
2018-02-20T12:50:54.157Z,17.67
2018-02-20T12:53:21.635Z,15.30
2018-02-20T12:55:49.135Z,15.75
2018-02-20T12:58:17.371Z,15.45
2018-02-20T13:00:45.002Z,16.23
2018-02-20T13:03:12.488Z,17.77
2018-02-20T13:05:39.962Z,15.60
2018-02-20T13:08:08.231Z,17.73
2018-02-20T13:10:35.732Z,20.05
2018-02-20T13:13:03.254Z,17.50
2018-02-20T13:15:30.735Z,18.83
2018-02-20T13:17:59.760Z,18.87
2018-02-20T13:20:27.270Z,19.35
2018-02-20T13:22:54.821Z,20.75
2018-02-20T13:25:22.331Z,21.23
2018-02-20T13:27:49.810Z,22.87
2018-02-20T13:30:17.308Z,21.73
2018-02-20T13:32:44.795Z,26.80
2018-02-20T13:35:13.114Z,23.80
2018-02-20T13:37:41.323Z,22.45
2018-02-20T13:40:08.813Z,23.50
2018-02-20T13:42:36.291Z,22.25
2018-02-20T13:45:03.790Z,23.83
2018-02-20T13:47:31.260Z,23.73
2018-02-20T13:49:58.832Z,24.42
2018-02-20T13:52:27.111Z,23.10
2018-02-20T13:54:55.372Z,22.60
2018-02-20T13:57:22.891Z,23.62
2018-02-20T13:59:50.355Z,26.23
2018-02-20T14:02:17.869Z,26.40
2018-02-20T14:04:46.103Z,41.85
2018-02-20T14:07:13.611Z,26.42
2018-02-20T14:09:41.879Z,24.77
2018-02-20T14:12:10.152Z,23.08
2018-02-20T14:14:38.397Z,24.08
2018-02-20T14:17:05.923Z,23.92
2018-02-20T14:19:33.410Z,23.30
2018-02-20T14:22:00.896Z,24.45
2018-02-20T14:24:29.179Z,23.50
2018-02-20T14:26:57.439Z,22.75
2018-02-20T14:29:26.459Z,23.45
2018-02-20T14:31:54.711Z,23.48
2018-02-20T14:34:22.239Z,25.23
2018-02-20T14:36:49.720Z,25.10
2018-02-20T14:39:17.222Z,25.55
2018-02-20T14:41:44.700Z,27.15
2018-02-20T14:44:12.195Z,28.87
2018-02-20T14:46:39.682Z,27.27
2018-02-20T14:49:07.966Z,27.13
2018-02-20T14:51:36.207Z,26.12
2018-02-20T14:54:03.710Z,26.37
2018-02-20T14:56:31.946Z,27.73
2018-02-20T14:59:00.073Z,27.92
2018-02-20T15:01:27.580Z,27.65
2018-02-20T15:03:55.086Z,29.37
2018-02-20T15:06:22.592Z,28.17
2018-02-20T15:08:50.103Z,25.92
2018-02-20T15:11:18.379Z,24.48
2018-02-20T15:13:45.901Z,28.77
2018-02-20T15:16:13.434Z,27.50
2018-02-20T15:18:40.907Z,27.45
2018-02-20T15:21:08.442Z,24.02
2018-02-20T15:23:35.919Z,28.48
2018-02-20T15:26:03.393Z,26.30
2018-02-20T15:28:30.900Z,25.10
2018-02-20T15:30:58.416Z,25.17
2018-02-20T15:33:25.944Z,26.33
2018-02-20T15:35:53.484Z,24.37
2018-02-20T15:38:21.005Z,24.15
2018-02-20T15:40:49.250Z,25.33
2018-02-20T15:43:16.803Z,24.90
2018-02-20T15:45:44.515Z,26.27
2018-02-20T15:48:12.762Z,24.52
2018-02-20T15:50:40.276Z,25.77
2018-02-20T15:53:07.826Z,26.65
2018-02-20T15:55:35.315Z,29.10
2018-02-20T15:58:02.811Z,25.83
2018-02-20T16:00:30.330Z,24.77
2018-02-20T16:02:57.803Z,26.25
2018-02-20T16:05:25.307Z,26.15
2018-02-20T16:07:53.593Z,27.10
2018-02-20T16:10:21.898Z,31.02
2018-02-20T16:12:49.403Z,29.87
2018-02-20T16:15:17.665Z,25.60
2018-02-20T16:17:45.183Z,24.20
2018-02-20T16:20:12.675Z,26.98
2018-02-20T16:22:40.174Z,26.75
2018-02-20T16:25:08.445Z,23.10
2018-02-20T16:27:36.753Z,25.80
2018-02-20T16:30:04.251Z,26.10
2018-02-20T16:32:31.800Z,26.70
2018-02-20T16:34:59.298Z,24.75
2018-02-20T16:37:27.572Z,24.90
2018-02-20T16:39:55.838Z,25.25
2018-02-20T16:42:23.334Z,25.67
2018-02-20T16:44:50.850Z,24.92
2018-02-20T16:47:18.351Z,27.80
2018-02-20T16:49:45.862Z,26.67
2018-02-20T16:52:13.374Z,26.10
2018-02-20T16:54:40.859Z,27.67
2018-02-20T16:57:08.363Z,25.30
2018-02-20T16:59:36.695Z,26.23
2018-02-20T17:02:04.171Z,26.25
2018-02-20T17:04:31.719Z,28.50
2018-02-20T17:06:59.199Z,26.35
2018-02-20T17:09:26.752Z,25.55
2018-02-20T17:11:54.242Z,27.87
2018-02-20T17:14:22.543Z,27.48
2018-02-20T17:16:50.067Z,27.42
2018-02-20T17:19:17.541Z,28.25
2018-02-20T17:21:45.834Z,27.48
2018-02-20T17:24:14.082Z,27.25
2018-02-20T17:26:42.329Z,30.85
2018-02-20T17:29:09.832Z,28.12
2018-02-20T17:31:38.084Z,29.77
2018-02-20T17:34:05.622Z,28.42
2018-02-20T17:36:33.133Z,28.65
2018-02-20T17:39:00.638Z,26.92
2018-02-20T17:41:28.165Z,26.87
2018-02-20T17:43:55.670Z,28.38
2018-02-20T17:46:23.206Z,28.08
2018-02-20T17:48:50.704Z,31.62
2018-02-20T17:51:18.210Z,31.77
2018-02-20T17:53:45.709Z,29.37
2018-02-20T17:56:13.295Z,31.83
2018-02-20T17:58:40.711Z,30.77
2018-02-20T18:01:08.211Z,33.70
2018-02-20T18:03:36.489Z,34.72
2018-02-20T18:06:04.734Z,32.42
2018-02-20T18:08:32.273Z,34.55
2018-02-20T18:10:59.783Z,32.95
2018-02-20T18:13:28.042Z,33.15
2018-02-20T18:15:55.555Z,33.15
2018-02-20T18:18:23.067Z,31.15
2018-02-20T18:20:51.342Z,29.85
2018-02-20T18:23:18.837Z,34.42
2018-02-20T18:25:46.332Z,32.50
2018-02-20T18:28:13.805Z,34.80
2018-02-20T18:30:41.311Z,33.80
2018-02-20T18:33:08.809Z,35.05
2018-02-20T18:35:36.327Z,33.03
2018-02-20T18:38:03.840Z,37.75
2018-02-20T18:40:31.363Z,34.90
2018-02-20T18:42:58.869Z,34.72
2018-02-20T18:45:26.387Z,33.65
2018-02-20T18:47:53.869Z,35.90
2018-02-20T18:50:21.362Z,33.88
2018-02-20T18:52:49.654Z,35.70
2018-02-20T18:55:17.168Z,37.15
2018-02-20T18:57:44.679Z,37.55
2018-02-20T19:00:12.219Z,35.30
2018-02-20T19:02:40.514Z,34.58
2018-02-20T19:05:08.014Z,35.53
2018-02-20T19:07:35.547Z,38.78
2018-02-20T19:10:03.046Z,34.38
2018-02-20T19:12:30.561Z,39.33
2018-02-20T19:14:58.092Z,40.10
2018-02-20T19:17:26.360Z,40.63
2018-02-20T19:19:54.636Z,38.35
2018-02-20T19:22:22.168Z,35.95
2018-02-20T19:24:49.662Z,38.30
2018-02-20T19:27:17.939Z,37.00
2018-02-20T19:29:46.210Z,40.60
2018-02-20T19:32:13.700Z,38.83
2018-02-20T19:34:41.210Z,39.05
2018-02-20T19:37:08.709Z,36.17
2018-02-20T19:39:36.183Z,36.97
2018-02-20T19:42:03.709Z,37.08
2018-02-20T19:44:31.971Z,37.28
2018-02-20T19:46:59.495Z,35.30
2018-02-20T19:49:26.986Z,36.40
2018-02-20T19:51:54.516Z,38.10
2018-02-20T19:54:22.028Z,38.42
2018-02-20T19:56:50.279Z,37.38
2018-02-20T19:59:17.779Z,38.88
2018-02-20T20:01:45.266Z,37.25
2018-02-20T20:04:12.808Z,35.05
2018-02-20T20:06:40.272Z,35.53
2018-02-20T20:09:07.784Z,34.75
2018-02-20T20:11:35.295Z,33.90
2018-02-20T20:14:02.792Z,34.22
2018-02-20T20:16:30.296Z,34.28
2018-02-20T20:18:57.799Z,56.80
2018-02-20T20:21:25.346Z,34.25
2018-02-20T20:23:52.831Z,33.15
2018-02-20T20:26:20.358Z,34.97
2018-02-20T20:28:47.870Z,32.70
2018-02-20T20:31:16.122Z,30.95
2018-02-20T20:33:43.622Z,34.40
2018-02-20T20:36:11.112Z,35.25
2018-02-20T20:38:38.626Z,31.65
2018-02-20T20:41:06.882Z,36.22
2018-02-20T20:43:34.393Z,30.20
2018-02-20T20:46:01.879Z,30.98
2018-02-20T20:48:29.441Z,30.52
2018-02-20T20:50:56.954Z,31.98
2018-02-20T20:53:24.455Z,29.85
2018-02-20T20:55:51.980Z,30.62
2018-02-20T20:58:19.466Z,30.60
2018-02-20T21:00:47.024Z,29.60
2018-02-20T21:03:14.543Z,31.50
2018-02-20T21:05:42.812Z,29.95
2018-02-20T21:08:10.321Z,30.15
2018-02-20T21:10:37.824Z,28.67
2018-02-20T21:13:05.360Z,32.55
2018-02-20T21:15:34.104Z,31.92
2018-02-20T21:18:01.585Z,31.73
2018-02-20T21:20:29.105Z,29.33
2018-02-20T21:22:57.394Z,31.08
2018-02-20T21:25:24.900Z,28.08
2018-02-20T21:27:52.441Z,29.73
2018-02-20T21:30:19.920Z,29.83
2018-02-20T21:32:47.435Z,28.85
2018-02-20T21:35:14.934Z,28.80
2018-02-20T21:37:42.454Z,27.37
2018-02-20T21:40:09.963Z,28.42
2018-02-20T21:42:37.468Z,31.35
2018-02-20T21:45:04.990Z,29.00
2018-02-20T21:47:32.467Z,26.33
2018-02-20T21:50:00.754Z,26.85
2018-02-20T21:52:28.239Z,25.40
2018-02-20T21:54:55.744Z,25.52
2018-02-20T21:57:23.251Z,27.85
2018-02-20T21:59:50.774Z,28.98
2018-02-20T22:02:19.033Z,26.00
2018-02-20T22:04:46.552Z,25.55
2018-02-20T22:07:14.018Z,26.50
2018-02-20T22:09:41.532Z,26.85
2018-02-20T22:12:09.824Z,29.15
2018-02-20T22:14:37.304Z,27.05
2018-02-20T22:17:04.780Z,30.77
2018-02-20T22:19:32.291Z,30.83
2018-02-20T22:22:00.522Z,29.17
2018-02-20T22:24:28.045Z,30.62
2018-02-20T22:26:55.563Z,32.33
2018-02-20T22:29:23.866Z,31.50
2018-02-20T22:31:51.369Z,28.65
2018-02-20T22:34:18.842Z,26.50
2018-02-20T22:36:46.362Z,31.25
2018-02-20T22:39:13.862Z,31.30
2018-02-20T22:41:41.374Z,33.28
2018-02-20T22:44:08.862Z,32.33
2018-02-20T22:46:36.340Z,29.63
2018-02-20T22:49:03.854Z,32.80
2018-02-20T22:51:31.366Z,32.10
2018-02-20T22:53:58.872Z,31.70
2018-02-20T22:56:26.343Z,31.67
2018-02-20T22:58:53.842Z,30.88
2018-02-20T23:01:21.355Z,31.20
2018-02-20T23:03:48.855Z,31.77
2018-02-20T23:06:16.343Z,31.25
2018-02-20T23:08:44.618Z,32.00
2018-02-20T23:11:12.852Z,31.33
2018-02-20T23:13:40.360Z,29.98
2018-02-20T23:16:07.876Z,33.03
2018-02-20T23:18:35.363Z,31.42
2018-02-20T23:21:03.644Z,32.28
2018-02-20T23:23:31.902Z,33.58
2018-02-20T23:25:59.427Z,31.12
2018-02-20T23:28:26.923Z,32.70
2018-02-20T23:30:54.433Z,33.30
2018-02-20T23:33:21.914Z,33.97
2018-02-20T23:35:49.440Z,32.63
2018-02-20T23:38:16.919Z,32.80
2018-02-20T23:40:44.427Z,33.20
2018-02-20T23:43:12.682Z,30.52
2018-02-20T23:45:40.171Z,29.80
2018-02-20T23:48:08.459Z,31.60
2018-02-20T23:50:35.958Z,32.95
2018-02-20T23:53:03.466Z,31.12
2018-02-20T23:55:31.715Z,30.23
2018-02-20T23:57:59.231Z,33.28
